createdAt,value
2019-01-18T00:32:48.505Z,1.48
2019-01-18T00:35:16.379Z,1.49
2019-01-18T00:37:44.357Z,1.46
2019-01-18T00:40:13.238Z,1.48
2019-01-18T00:42:41.463Z,1.49
2019-01-18T00:45:12.158Z,1.50
2019-01-18T00:47:40.912Z,1.49
2019-01-18T00:50:11.112Z,1.49
2019-01-18T00:52:39.160Z,1.50
2019-01-18T00:55:07.872Z,1.50
2019-01-18T00:57:35.896Z,1.52
2019-01-18T01:00:06.604Z,1.54
2019-01-18T01:02:35.062Z,1.56
2019-01-18T01:05:03.021Z,1.58
2019-01-18T01:07:31.012Z,1.61
2019-01-18T01:09:59.961Z,1.62
2019-01-18T01:12:28.041Z,1.64
2019-01-18T01:14:56.011Z,1.66
2019-01-18T01:17:24.793Z,1.67
2019-01-18T01:19:52.927Z,1.67
2019-01-18T01:22:20.904Z,1.68
2019-01-18T01:24:49.469Z,1.66
2019-01-18T01:27:17.865Z,1.69
2019-01-18T01:29:46.057Z,1.69
2019-01-18T01:32:14.231Z,1.56
2019-01-18T01:34:43.025Z,1.72
2019-01-18T01:37:11.835Z,1.73
2019-01-18T01:39:39.884Z,1.74
2019-01-18T01:42:07.679Z,1.75
2019-01-18T01:44:36.128Z,1.72
2019-01-18T01:47:04.086Z,1.62
2019-01-18T01:49:32.348Z,1.74
2019-01-18T01:52:00.436Z,1.74
2019-01-18T01:54:28.634Z,1.73
2019-01-18T01:56:56.748Z,1.75
2019-01-18T01:59:25.260Z,1.73
2019-01-18T02:01:53.015Z,1.72
2019-01-18T02:04:21.705Z,1.72
2019-01-18T02:06:49.682Z,1.71
2019-01-18T02:09:17.846Z,1.71
2019-01-18T02:11:45.833Z,1.71
2019-01-18T02:14:13.986Z,1.71
2019-01-18T02:16:42.261Z,1.58
2019-01-18T02:19:11.061Z,1.70
2019-01-18T02:21:39.445Z,1.70
2019-01-18T02:24:07.804Z,1.69
2019-01-18T02:26:35.881Z,1.68
2019-01-18T02:29:04.704Z,1.65
2019-01-18T02:31:32.777Z,1.67
2019-01-18T02:34:00.885Z,1.64
2019-01-18T02:36:28.947Z,1.64
2019-01-18T02:38:56.991Z,1.67
2019-01-18T02:41:25.153Z,1.67
2019-01-18T02:43:52.967Z,1.67
2019-01-18T02:46:20.697Z,0.95
2019-01-18T02:48:48.790Z,1.64
2019-01-18T02:51:16.575Z,1.61
2019-01-18T02:53:44.905Z,1.52
2019-01-18T02:56:12.756Z,1.47
2019-01-18T02:58:40.666Z,1.43
2019-01-18T03:01:09.165Z,1.38
2019-01-18T03:03:37.360Z,1.36
2019-01-18T03:06:05.114Z,1.31
2019-01-18T03:08:33.597Z,1.29
2019-01-18T03:11:01.566Z,1.25
2019-01-18T03:13:29.808Z,1.22
2019-01-18T03:15:58.341Z,1.24
2019-01-18T03:18:26.485Z,1.24
2019-01-18T03:20:54.469Z,0.99
2019-01-18T03:23:22.809Z,1.23
2019-01-18T03:25:50.857Z,1.08
2019-01-18T03:28:18.889Z,1.25
2019-01-18T03:30:47.594Z,1.27
2019-01-18T03:33:15.881Z,1.29
2019-01-18T03:35:43.930Z,1.03
2019-01-18T03:38:12.289Z,1.29
2019-01-18T03:40:40.204Z,1.28
2019-01-18T03:43:08.086Z,1.23
2019-01-18T03:45:36.899Z,1.24
2019-01-18T03:48:05.072Z,1.24
2019-01-18T03:50:33.402Z,1.21
2019-01-18T03:53:01.644Z,1.23
2019-01-18T03:55:30.598Z,1.22
2019-01-18T03:57:58.394Z,1.20
2019-01-18T04:00:29.194Z,1.19
2019-01-18T04:02:57.449Z,1.15
2019-01-18T04:05:25.486Z,1.14
2019-01-18T04:07:54.259Z,1.13
2019-01-18T04:10:22.989Z,1.12
2019-01-18T04:12:51.314Z,1.10
2019-01-18T04:15:21.801Z,1.05
2019-01-18T04:17:50.901Z,1.01
2019-01-18T04:20:19.593Z,0.71
2019-01-18T04:22:48.168Z,0.94
2019-01-18T04:25:19.576Z,0.42
2019-01-18T04:27:47.659Z,0.87
2019-01-18T04:30:17.985Z,0.82
2019-01-18T04:32:46.001Z,0.77
2019-01-18T04:35:14.108Z,0.76
2019-01-18T04:37:42.657Z,0.74
2019-01-18T04:40:15.139Z,0.74
2019-01-18T04:42:43.477Z,0.75
2019-01-18T04:45:12.069Z,0.70
2019-01-18T04:47:40.907Z,0.72
2019-01-18T04:50:11.829Z,0.71
2019-01-18T04:52:40.081Z,0.70
2019-01-18T04:55:08.766Z,0.69
2019-01-18T04:57:37.146Z,0.55
2019-01-18T05:00:08.024Z,0.60
2019-01-18T05:02:35.865Z,0.47
2019-01-18T05:05:06.194Z,0.60
2019-01-18T05:07:34.368Z,0.55
2019-01-18T05:10:05.093Z,0.49
2019-01-18T05:12:32.956Z,0.39
2019-01-18T05:15:06.255Z,0.37
2019-01-18T05:17:34.664Z,0.09
2019-01-18T05:20:03.499Z,0.11
2019-01-18T05:22:31.947Z,-0.07
2019-01-18T05:25:00.046Z,0.10
2019-01-18T05:27:28.689Z,0.02
2019-01-18T05:29:57.284Z,-0.35
2019-01-18T05:32:26.397Z,-0.04
2019-01-18T05:34:54.177Z,-0.12
2019-01-18T05:37:22.956Z,-0.41
2019-01-18T05:39:51.168Z,-0.21
2019-01-18T05:42:20.751Z,-0.36
2019-01-18T05:44:49.621Z,-0.75
2019-01-18T05:47:18.491Z,-0.28
2019-01-18T05:49:47.207Z,-0.30
2019-01-18T05:52:15.401Z,-0.31
2019-01-18T05:54:43.816Z,-0.35
2019-01-18T05:57:11.974Z,-0.36
2019-01-18T05:59:41.084Z,-1.00
2019-01-18T06:02:09.204Z,-0.43
2019-01-18T06:04:38.586Z,-0.86
2019-01-18T06:07:06.681Z,-0.52
2019-01-18T06:09:34.600Z,-0.56
2019-01-18T06:12:02.778Z,-0.84
2019-01-18T06:14:30.610Z,-0.59
2019-01-18T06:16:58.401Z,-0.62
2019-01-18T06:19:26.813Z,-0.65
2019-01-18T06:21:54.556Z,-0.68
2019-01-18T06:24:22.579Z,-0.70
2019-01-18T06:26:51.097Z,-0.73
2019-01-18T06:29:19.554Z,-0.74
2019-01-18T06:31:47.502Z,-0.87
2019-01-18T06:34:15.974Z,-1.77
2019-01-18T06:36:43.941Z,-2.04
2019-01-18T06:39:11.729Z,-0.82
2019-01-18T06:41:49.799Z,-0.86
2019-01-18T06:44:17.677Z,-0.89
2019-01-18T06:46:46.450Z,-1.30
2019-01-18T06:49:16.116Z,-0.92
2019-01-18T06:51:44.582Z,-0.95
2019-01-18T06:54:12.689Z,-0.98
2019-01-18T06:56:40.421Z,-1.13
2019-01-18T06:59:08.220Z,-1.03
2019-01-18T07:01:36.285Z,-1.06
2019-01-18T07:04:04.547Z,-1.09
2019-01-18T07:06:32.298Z,-1.11
2019-01-18T07:09:00.965Z,-1.13
2019-01-18T07:11:28.779Z,-1.14
2019-01-18T07:13:56.569Z,-1.15
2019-01-18T07:16:25.198Z,-1.15
2019-01-18T07:18:53.100Z,-1.18
2019-01-18T07:21:24.326Z,-1.20
2019-01-18T07:23:52.791Z,-2.48
2019-01-18T07:26:20.845Z,-1.26
2019-01-18T07:28:49.072Z,-1.76
2019-01-18T07:31:17.417Z,-1.34
2019-01-18T07:33:45.154Z,-1.33
2019-01-18T07:36:12.994Z,-1.35
2019-01-18T07:38:41.568Z,-1.32
2019-01-18T07:41:09.439Z,-1.29
2019-01-18T07:43:37.535Z,-1.26
2019-01-18T07:46:06.338Z,-1.25
2019-01-18T07:48:34.198Z,-1.26
2019-01-18T07:51:01.973Z,-1.27
2019-01-18T07:53:30.198Z,-1.28
2019-01-18T07:55:57.945Z,-1.32
2019-01-18T07:58:25.942Z,-1.33
2019-01-18T08:00:53.996Z,-1.34
2019-01-18T08:03:21.947Z,-1.34
2019-01-18T08:05:50.030Z,-1.35
2019-01-18T08:08:18.017Z,-1.33
2019-01-18T08:10:45.949Z,-1.32
2019-01-18T08:13:14.019Z,-1.31
2019-01-18T08:15:42.696Z,-1.28
2019-01-18T08:18:10.705Z,-1.22
2019-01-18T08:20:38.686Z,-1.14
2019-01-18T08:23:06.524Z,-1.06
2019-01-18T08:25:34.549Z,-1.03
2019-01-18T08:28:03.515Z,-1.00
2019-01-18T08:30:31.707Z,-0.97
2019-01-18T08:32:59.649Z,-0.94
2019-01-18T08:35:28.635Z,-0.83
2019-01-18T08:37:56.410Z,-0.80
2019-01-18T08:40:36.071Z,-0.73
2019-01-18T08:43:05.625Z,-0.71
2019-01-18T08:45:37.357Z,-0.69
2019-01-18T08:48:06.378Z,-0.63
2019-01-18T08:50:34.513Z,-0.97
2019-01-18T08:53:02.493Z,-0.55
2019-01-18T08:55:30.425Z,-0.48
2019-01-18T08:57:58.254Z,-0.46
2019-01-18T09:00:26.694Z,-0.44
2019-01-18T09:02:56.015Z,-0.45
2019-01-18T09:05:24.897Z,-0.47
2019-01-18T09:07:53.656Z,-0.49
2019-01-18T09:10:22.792Z,-0.50
2019-01-18T09:12:50.863Z,-0.49
2019-01-18T09:15:19.389Z,-0.80
2019-01-18T09:17:47.201Z,-0.51
2019-01-18T09:20:17.687Z,-0.49
2019-01-18T09:22:45.495Z,-0.49
2019-01-18T09:25:13.572Z,-0.45
2019-01-18T09:27:41.366Z,-0.37
2019-01-18T09:30:13.328Z,-0.27
2019-01-18T09:32:42.686Z,-0.16
2019-01-18T09:35:11.865Z,-0.08
2019-01-18T09:37:40.187Z,-0.29
2019-01-18T09:40:11.940Z,0.07
2019-01-18T09:42:40.898Z,-0.23
2019-01-18T09:45:09.496Z,0.18
2019-01-18T09:47:37.486Z,0.22
2019-01-18T09:50:09.317Z,0.24
2019-01-18T09:52:37.047Z,0.28
2019-01-18T09:55:05.611Z,0.32
2019-01-18T09:57:33.937Z,0.40
2019-01-18T10:00:01.721Z,0.48
2019-01-18T10:02:29.680Z,0.51
2019-01-18T10:04:57.852Z,0.54
2019-01-18T10:07:25.669Z,0.58
2019-01-18T10:09:53.468Z,0.69
2019-01-18T10:12:22.035Z,0.75
2019-01-18T10:14:49.817Z,0.44
2019-01-18T10:17:17.613Z,0.74
2019-01-18T10:19:45.831Z,0.91
2019-01-18T10:22:13.827Z,0.95
2019-01-18T10:24:41.995Z,0.49
2019-01-18T10:27:17.050Z,1.04
2019-01-18T10:29:44.893Z,0.81
2019-01-18T10:32:12.958Z,1.05
2019-01-18T10:34:41.676Z,1.05
2019-01-18T10:37:09.670Z,1.04
2019-01-18T10:39:37.401Z,1.09
2019-01-18T10:42:05.631Z,1.08
2019-01-18T10:44:33.400Z,1.10
2019-01-18T10:47:01.144Z,1.13
2019-01-18T10:49:29.310Z,1.16
2019-01-18T10:51:57.035Z,1.21
2019-01-18T10:54:25.057Z,1.28
2019-01-18T10:56:53.498Z,1.12
2019-01-18T10:59:21.338Z,1.45
2019-01-18T11:01:49.322Z,1.51
2019-01-18T11:04:17.599Z,1.63
2019-01-18T11:06:45.369Z,1.67
2019-01-18T11:09:13.599Z,1.88
2019-01-18T11:11:41.374Z,1.30
2019-01-18T11:14:09.269Z,2.00
2019-01-18T11:16:38.455Z,2.13
2019-01-18T11:19:06.461Z,2.22
2019-01-18T11:21:34.582Z,2.15
2019-01-18T11:24:03.113Z,2.32
2019-01-18T11:26:31.024Z,2.36
2019-01-18T11:28:59.161Z,2.48
2019-01-18T11:31:27.503Z,2.50
2019-01-18T11:33:55.327Z,2.12
2019-01-18T11:36:23.279Z,2.46
2019-01-18T11:38:51.525Z,2.55
2019-01-18T11:41:19.809Z,2.67
2019-01-18T11:43:47.646Z,2.78
2019-01-18T11:46:15.659Z,2.86
2019-01-18T11:48:43.700Z,2.80
2019-01-18T11:51:11.594Z,2.77
2019-01-18T11:53:39.343Z,2.82
2019-01-18T11:56:07.574Z,2.67
2019-01-18T11:58:35.506Z,2.54
2019-01-18T12:01:04.471Z,2.72
2019-01-18T12:03:32.249Z,2.62
2019-01-18T12:06:00.099Z,2.95
2019-01-18T12:08:28.038Z,2.98
2019-01-18T12:10:55.942Z,2.97
2019-01-18T12:13:23.791Z,2.88
2019-01-18T12:15:52.066Z,2.88
2019-01-18T12:18:19.827Z,2.90
2019-01-18T12:20:47.689Z,2.96
2019-01-18T12:23:16.131Z,3.07
2019-01-18T12:25:44.078Z,3.18
2019-01-18T12:28:12.181Z,3.29
2019-01-18T12:30:41.221Z,3.18
2019-01-18T12:33:09.033Z,3.26
2019-01-18T12:35:36.826Z,3.16
2019-01-18T12:38:05.162Z,3.09
2019-01-18T12:40:33.081Z,3.05
2019-01-18T12:43:01.437Z,3.09
2019-01-18T12:45:31.982Z,1.80
2019-01-18T12:47:59.951Z,3.24
2019-01-18T12:50:32.107Z,3.21
2019-01-18T12:53:00.286Z,3.23
2019-01-18T12:55:28.172Z,3.28
2019-01-18T12:57:56.091Z,3.32
2019-01-18T13:00:24.744Z,3.32
2019-01-18T13:02:52.694Z,3.26
2019-01-18T13:05:25.397Z,3.18
2019-01-18T13:07:53.566Z,2.87
2019-01-18T13:10:22.190Z,2.99
2019-01-18T13:12:50.145Z,2.85
2019-01-18T13:15:22.825Z,2.75
2019-01-18T13:17:52.261Z,2.68
2019-01-18T13:20:20.674Z,2.61
2019-01-18T13:22:49.493Z,2.46
2019-01-18T13:25:17.638Z,2.54
2019-01-18T13:27:45.517Z,2.39
2019-01-18T13:30:14.998Z,2.46
2019-01-18T13:32:43.529Z,2.29
2019-01-18T13:35:11.609Z,2.36
2019-01-18T13:37:39.969Z,2.17
2019-01-18T13:40:13.321Z,2.22
2019-01-18T13:42:42.293Z,2.17
2019-01-18T13:45:11.010Z,2.17
2019-01-18T13:47:39.336Z,2.16
2019-01-18T13:50:10.106Z,2.12
2019-01-18T13:52:38.636Z,1.71
2019-01-18T13:55:11.954Z,2.03
2019-01-18T13:57:39.929Z,1.99
2019-01-18T14:00:09.404Z,1.94
2019-01-18T14:02:40.586Z,1.90
2019-01-18T14:05:07.426Z,1.88
2019-01-18T14:07:36.152Z,1.51
2019-01-18T14:10:05.404Z,1.85
2019-01-18T14:12:33.426Z,1.85
2019-01-18T14:15:02.026Z,1.47
2019-01-18T14:17:30.300Z,1.83
2019-01-18T14:19:59.528Z,1.82
2019-01-18T14:22:27.486Z,1.82
2019-01-18T14:24:55.846Z,1.82
2019-01-18T14:27:24.148Z,1.82
2019-01-18T14:29:52.955Z,1.80
2019-01-18T14:32:20.815Z,1.77
2019-01-18T14:34:48.930Z,1.77
2019-01-18T14:37:17.030Z,1.75
2019-01-18T14:39:45.112Z,1.74
2019-01-18T14:42:13.474Z,1.72
2019-01-18T14:44:44.281Z,1.71
2019-01-18T14:47:12.379Z,1.70
2019-01-18T14:49:42.582Z,1.67
2019-01-18T14:52:13.691Z,1.65
2019-01-18T14:54:48.489Z,1.63
2019-01-18T14:57:18.841Z,1.61
2019-01-18T14:59:49.222Z,1.57
2019-01-18T15:02:17.654Z,1.55
2019-01-18T15:04:46.685Z,1.51
2019-01-18T15:07:14.843Z,1.47
2019-01-18T15:09:43.139Z,1.43
2019-01-18T15:12:11.099Z,1.38
2019-01-18T15:14:40.245Z,1.33
2019-01-18T15:17:08.990Z,1.27
2019-01-18T15:19:37.122Z,1.23
2019-01-18T15:22:05.410Z,1.20
2019-01-18T15:24:36.262Z,1.14
2019-01-18T15:27:06.406Z,1.11
2019-01-18T15:29:35.415Z,1.07
2019-01-18T15:32:04.469Z,1.03
2019-01-18T15:34:32.336Z,0.99
2019-01-18T15:37:02.159Z,0.95
2019-01-18T15:39:31.105Z,0.89
2019-01-18T15:41:59.353Z,0.86
2019-01-18T15:44:27.362Z,0.82
2019-01-18T15:46:56.424Z,0.77
2019-01-18T15:49:24.677Z,0.73
2019-01-18T15:51:52.694Z,0.70
2019-01-18T15:54:21.366Z,0.67
2019-01-18T15:56:49.998Z,0.62
2019-01-18T15:59:17.915Z,0.58
2019-01-18T16:01:47.369Z,0.53
2019-01-18T16:04:15.574Z,0.50
2019-01-18T16:06:44.045Z,0.46
2019-01-18T16:09:13.763Z,0.40
2019-01-18T16:11:42.069Z,0.28
2019-01-18T16:14:10.747Z,0.29
2019-01-18T16:16:46.807Z,0.26
2019-01-18T16:19:14.927Z,0.14
2019-01-18T16:21:43.507Z,0.20
2019-01-18T16:24:11.718Z,-0.08
2019-01-18T16:26:39.808Z,0.13
2019-01-18T16:29:08.450Z,0.10
2019-01-18T16:31:36.900Z,0.06
2019-01-18T16:34:05.333Z,0.03
2019-01-18T16:36:34.184Z,0.01
2019-01-18T16:39:04.752Z,0.00
2019-01-18T16:41:37.300Z,0.00
2019-01-18T16:44:06.225Z,-0.01
2019-01-18T16:46:34.826Z,0.00
2019-01-18T16:49:04.199Z,-0.02
2019-01-18T16:51:33.240Z,-0.05
2019-01-18T16:54:01.919Z,-0.09
2019-01-18T16:56:30.244Z,-0.15
2019-01-18T16:59:00.951Z,-0.22
2019-01-18T17:01:30.089Z,-0.65
2019-01-18T17:03:58.359Z,-0.43
2019-01-18T17:06:27.938Z,-0.62
2019-01-18T17:08:55.968Z,-0.40
2019-01-18T17:11:24.129Z,-0.42
2019-01-18T17:13:52.698Z,-0.72
2019-01-18T17:16:20.559Z,-0.49
2019-01-18T17:18:48.686Z,-0.53
2019-01-18T17:21:17.014Z,-0.56
2019-01-18T17:23:45.562Z,-0.59
2019-01-18T17:26:13.782Z,-0.89
2019-01-18T17:28:41.992Z,-0.67
2019-01-18T17:31:10.333Z,-0.70
2019-01-18T17:33:38.594Z,-0.86
2019-01-18T17:36:16.741Z,-1.26
2019-01-18T17:39:50.998Z,-0.84
2019-01-18T17:42:28.181Z,-0.89
2019-01-18T17:45:24.541Z,-0.93
2019-01-18T17:48:38.424Z,-0.98
2019-01-18T17:52:20.841Z,-1.01
2019-01-18T17:55:03.629Z,-1.03
2019-01-18T17:58:14.608Z,-1.10
2019-01-18T18:03:00.461Z,-1.07
2019-01-18T18:05:41.343Z,-1.14
2019-01-18T18:08:32.876Z,-1.16
2019-01-18T18:13:14.475Z,-1.59
2019-01-18T18:15:54.547Z,-1.27
2019-01-18T18:20:35.612Z,-1.32
2019-01-18T18:23:18.653Z,-1.38
2019-01-18T18:26:02.678Z,-1.41
2019-01-18T18:30:47.395Z,-1.55
2019-01-18T18:33:30.939Z,-1.43
2019-01-18T18:36:28.824Z,-1.46
2019-01-18T18:45:27.765Z,-1.49
2019-01-18T18:48:05.729Z,-1.62
2019-01-18T18:51:06.754Z,-1.66
2019-01-18T18:54:57.873Z,-1.69
2019-01-18T18:57:40.078Z,-1.73
2019-01-18T19:00:16.169Z,-1.74
2019-01-18T19:02:58.740Z,-1.75
2019-01-18T19:05:47.002Z,-1.78
2019-01-18T19:08:34.807Z,-1.78
2019-01-18T19:11:18.662Z,-1.80
2019-01-18T19:14:12.610Z,-1.79
2019-01-18T19:19:00.068Z,-2.16
2019-01-18T19:21:40.059Z,-1.80
2019-01-18T19:24:31.213Z,-1.82
2019-01-18T19:27:20.132Z,-1.86
2019-01-18T19:40:22.391Z,-1.91
2019-01-18T19:44:14.637Z,-2.16
2019-01-18T19:47:12.260Z,-2.27
2019-01-18T19:51:54.651Z,-2.35
2019-01-18T19:54:38.634Z,-2.41
2019-01-18T19:57:21.983Z,-2.40
2019-01-18T20:00:01.825Z,-2.40
2019-01-18T20:02:38.123Z,-2.47
2019-01-18T20:05:21.394Z,-2.34
2019-01-18T20:10:07.516Z,-2.33
2019-01-18T20:14:56.153Z,-2.45
2019-01-18T20:17:47.092Z,-2.33
2019-01-18T20:20:30.914Z,-2.31
2019-01-18T20:23:11.962Z,-2.32
2019-01-18T20:25:48.542Z,-2.41
2019-01-18T20:29:00.354Z,-2.31
2019-01-18T20:32:48.695Z,-2.33
2019-01-18T20:35:32.167Z,-2.61
2019-01-18T20:38:18.625Z,-2.53
2019-01-18T20:41:04.893Z,-2.42
2019-01-18T20:43:43.061Z,-2.42
2019-01-18T20:46:25.515Z,-2.44
2019-01-18T20:49:03.420Z,-2.59
2019-01-18T20:51:51.795Z,-2.72
2019-01-18T20:54:48.596Z,-2.52
2019-01-18T20:57:28.565Z,-2.55
2019-01-18T21:03:12.389Z,-2.55
2019-01-18T21:05:55.205Z,-2.56
2019-01-18T21:08:37.922Z,-2.58
2019-01-18T21:11:21.484Z,-2.58
2019-01-18T21:14:16.619Z,-2.59
2019-01-18T21:16:58.548Z,-2.65
2019-01-18T21:20:35.752Z,-2.64
2019-01-18T21:25:50.325Z,-2.65
2019-01-18T21:30:39.321Z,-2.69
2019-01-18T21:35:20.309Z,-2.71
2019-01-18T21:38:04.077Z,-2.96
2019-01-18T21:40:43.153Z,-2.75
2019-01-18T21:43:21.994Z,-2.78
2019-01-18T21:46:09.133Z,-2.93
2019-01-18T21:49:22.944Z,-2.80
2019-01-18T21:52:09.087Z,-2.82
2019-01-18T21:54:50.804Z,-3.00
2019-01-18T21:57:32.846Z,-2.91
2019-01-18T22:00:13.772Z,-2.95
2019-01-18T22:04:59.154Z,-2.97
2019-01-18T22:08:09.943Z,-3.15
2019-01-18T22:10:57.338Z,-3.04
2019-01-18T22:13:34.690Z,-3.03
2019-01-18T22:16:23.282Z,-3.28
2019-01-18T22:21:11.112Z,-3.04
2019-01-18T22:23:49.147Z,-3.03
2019-01-18T22:26:32.173Z,-3.36
2019-01-18T22:29:11.859Z,-3.14
2019-01-18T22:31:54.402Z,-3.18
2019-01-18T22:34:47.525Z,-3.05
2019-01-18T22:37:26.460Z,-3.10
2019-01-18T22:42:10.450Z,-3.17
2019-01-18T22:45:25.148Z,-3.44
2019-01-18T22:48:06.385Z,-3.42
2019-01-18T22:50:52.716Z,-3.48
2019-01-18T22:55:39.759Z,-3.54
2019-01-18T22:58:32.491Z,-3.60
2019-01-18T23:01:18.406Z,-3.63
2019-01-18T23:06:08.648Z,-3.67
2019-01-18T23:09:16.579Z,-3.77
2019-01-18T23:11:51.794Z,-3.81
2019-01-18T23:14:31.873Z,-3.83
2019-01-18T23:17:11.823Z,-3.86
2019-01-18T23:20:15.295Z,-3.83
2019-01-18T23:23:03.416Z,-4.00
2019-01-18T23:27:00.909Z,-3.87
2019-01-18T23:29:41.862Z,-3.91
2019-01-18T23:33:25.858Z,-3.93
2019-01-18T23:36:33.326Z,-3.98
2019-01-18T23:39:47.709Z,-4.03
2019-01-18T23:42:52.514Z,-4.08
2019-01-18T23:45:36.847Z,-4.12
2019-01-18T23:48:40.988Z,-4.15
2019-01-18T23:53:21.014Z,-4.69
2019-01-18T23:55:58.526Z,-4.19
2019-01-18T23:58:45.754Z,-4.24
